Terminal Aerodrome Forecast
Issued by NWS

Home | Current Version | Previous Version | Text Only | Print | Product List | Glossary On
Versions: 1 2 3 4 5 6 7 8 9 10 11 12 13 14 15 16 17
219
FTUS42 KMLB 271125
TAFSUA
TAF
KSUA 271125Z 2712/2812 09011KT P6SM BKN035
     FM271300 11014G20KT P6SM VCSH BKN035
     FM271800 12014G22KT P6SM SCT035
     FM280000 11008KT P6SM SCT030
     FM280800 11005KT P6SM SCT015=

USA.gov is the U.S. government's official web portal to all federal, state and local government web resources and services.